sensor_id;sensor_type;location;lat;lon;timestamp;temperature;humidity
62589;DHT22;58504;48.770;9.148;2023-07-31T00:00:55;22.40;59.40
62589;DHT22;58504;48.770;9.148;2023-07-31T00:03:22;22.40;59.30
62589;DHT22;58504;48.770;9.148;2023-07-31T00:05:49;22.40;59.40
62589;DHT22;58504;48.770;9.148;2023-07-31T00:08:17;22.40;59.40
62589;DHT22;58504;48.770;9.148;2023-07-31T00:10:43;22.40;59.40
62589;DHT22;58504;48.770;9.148;2023-07-31T00:13:10;22.40;59.40
62589;DHT22;58504;48.770;9.148;2023-07-31T00:15:37;22.40;59.40
62589;DHT22;58504;48.770;9.148;2023-07-31T00:18:04;22.40;59.40
62589;DHT22;58504;48.770;9.148;2023-07-31T00:20:30;22.40;59.40
62589;DHT22;58504;48.770;9.148;2023-07-31T00:22:57;22.40;59.40
62589;DHT22;58504;48.770;9.148;2023-07-31T00:25:25;22.40;59.40
62589;DHT22;58504;48.770;9.148;2023-07-31T00:27:52;22.40;60.00
62589;DHT22;58504;48.770;9.148;2023-07-31T00:30:19;22.40;59.40
62589;DHT22;58504;48.770;9.148;2023-07-31T00:32:45;22.40;59.40
62589;DHT22;58504;48.770;9.148;2023-07-31T00:35:12;22.40;59.40
62589;DHT22;58504;48.770;9.148;2023-07-31T00:37:39;22.30;59.40
62589;DHT22;58504;48.770;9.148;2023-07-31T00:40:07;22.40;59.50
62589;DHT22;58504;48.770;9.148;2023-07-31T00:42:35;22.40;59.40
62589;DHT22;58504;48.770;9.148;2023-07-31T00:45:02;22.30;59.40
62589;DHT22;58504;48.770;9.148;2023-07-31T00:47:29;22.30;59.40
62589;DHT22;58504;48.770;9.148;2023-07-31T00:49:56;22.30;59.40
62589;DHT22;58504;48.770;9.148;2023-07-31T00:52:23;22.30;59.40
62589;DHT22;58504;48.770;9.148;2023-07-31T00:54:50;22.30;59.30
62589;DHT22;58504;48.770;9.148;2023-07-31T00:57:17;22.30;59.40
62589;DHT22;58504;48.770;9.148;2023-07-31T00:59:45;22.30;59.40
62589;DHT22;58504;48.770;9.148;2023-07-31T01:02:12;22.30;59.40
62589;DHT22;58504;48.770;9.148;2023-07-31T01:04:39;22.30;59.40
62589;DHT22;58504;48.770;9.148;2023-07-31T01:07:11;22.30;59.40
62589;DHT22;58504;48.770;9.148;2023-07-31T01:09:44;22.30;59.40
62589;DHT22;58504;48.770;9.148;2023-07-31T01:12:15;22.40;59.50
62589;DHT22;58504;48.770;9.148;2023-07-31T01:14:52;22.40;59.50
62589;DHT22;58504;48.770;9.148;2023-07-31T01:17:28;22.30;59.40
62589;DHT22;58504;48.770;9.148;2023-07-31T01:19:56;22.30;59.50
62589;DHT22;58504;48.770;9.148;2023-07-31T01:22:39;22.30;59.50
62589;DHT22;58504;48.770;9.148;2023-07-31T01:25:25;22.30;59.50
62589;DHT22;58504;48.770;9.148;2023-07-31T01:28:03;22.30;59.50
62589;DHT22;58504;48.770;9.148;2023-07-31T01:30:33;22.30;59.50
62589;DHT22;58504;48.770;9.148;2023-07-31T01:33:03;22.30;59.50
62589;DHT22;58504;48.770;9.148;2023-07-31T01:35:33;22.30;59.50
62589;DHT22;58504;48.770;9.148;2023-07-31T01:38:00;22.30;59.50
62589;DHT22;58504;48.770;9.148;2023-07-31T01:40:26;22.30;59.50
62589;DHT22;58504;48.770;9.148;2023-07-31T01:42:53;22.30;59.50
62589;DHT22;58504;48.770;9.148;2023-07-31T01:45:21;22.30;59.50
62589;DHT22;58504;48.770;9.148;2023-07-31T01:47:48;22.30;59.50
62589;DHT22;58504;48.770;9.148;2023-07-31T01:50:15;22.20;59.50
62589;DHT22;58504;48.770;9.148;2023-07-31T01:52:41;22.30;60.10
62589;DHT22;58504;48.770;9.148;2023-07-31T01:55:08;22.30;59.50
62589;DHT22;58504;48.770;9.148;2023-07-31T01:57:36;22.30;59.50
62589;DHT22;58504;48.770;9.148;2023-07-31T02:00:04;22.20;59.50
62589;DHT22;58504;48.770;9.148;2023-07-31T02:02:33;22.30;59.50
62589;DHT22;58504;48.770;9.148;2023-07-31T02:04:59;22.20;59.50
62589;DHT22;58504;48.770;9.148;2023-07-31T02:07:26;22.30;59.50
62589;DHT22;58504;48.770;9.148;2023-07-31T02:09:53;22.30;59.50
62589;DHT22;58504;48.770;9.148;2023-07-31T02:12:20;22.20;59.50
62589;DHT22;58504;48.770;9.148;2023-07-31T02:14:46;22.20;59.50
62589;DHT22;58504;48.770;9.148;2023-07-31T02:17:13;22.20;59.40
62589;DHT22;58504;48.770;9.148;2023-07-31T02:19:41;22.20;59.50
62589;DHT22;58504;48.770;9.148;2023-07-31T02:22:08;22.30;59.50
62589;DHT22;58504;48.770;9.148;2023-07-31T02:24:35;22.20;59.50
62589;DHT22;58504;48.770;9.148;2023-07-31T02:27:02;22.20;59.50
62589;DHT22;58504;48.770;9.148;2023-07-31T02:29:28;22.20;59.50
62589;DHT22;58504;48.770;9.148;2023-07-31T02:31:55;22.20;59.40
62589;DHT22;58504;48.770;9.148;2023-07-31T02:34:22;22.20;59.40
62589;DHT22;58504;48.770;9.148;2023-07-31T02:36:50;22.20;59.50
62589;DHT22;58504;48.770;9.148;2023-07-31T02:39:17;22.20;59.40
62589;DHT22;58504;48.770;9.148;2023-07-31T02:41:43;22.20;59.40
62589;DHT22;58504;48.770;9.148;2023-07-31T02:44:10;22.20;59.40
62589;DHT22;58504;48.770;9.148;2023-07-31T02:46:39;22.20;59.40
62589;DHT22;58504;48.770;9.148;2023-07-31T02:49:06;22.20;59.40
62589;DHT22;58504;48.770;9.148;2023-07-31T02:51:33;22.20;59.40
62589;DHT22;58504;48.770;9.148;2023-07-31T02:54:01;22.20;59.40
62589;DHT22;58504;48.770;9.148;2023-07-31T02:56:28;22.20;59.40
62589;DHT22;58504;48.770;9.148;2023-07-31T02:58:54;22.20;59.50
62589;DHT22;58504;48.770;9.148;2023-07-31T03:01:21;22.20;59.40
62589;DHT22;58504;48.770;9.148;2023-07-31T03:03:48;22.30;59.50
62589;DHT22;58504;48.770;9.148;2023-07-31T03:06:15;22.20;59.40
62589;DHT22;58504;48.770;9.148;2023-07-31T03:08:41;22.20;59.50
62589;DHT22;58504;48.770;9.148;2023-07-31T03:11:09;22.20;59.50
62589;DHT22;58504;48.770;9.148;2023-07-31T03:13:36;22.20;59.50
62589;DHT22;58504;48.770;9.148;2023-07-31T03:16:03;22.20;59.50
62589;DHT22;58504;48.770;9.148;2023-07-31T03:18:30;22.20;59.50
62589;DHT22;58504;48.770;9.148;2023-07-31T03:20:57;22.10;59.30
62589;DHT22;58504;48.770;9.148;2023-07-31T03:23:24;22.20;59.50
62589;DHT22;58504;48.770;9.148;2023-07-31T03:25:57;22.20;59.50
62589;DHT22;58504;48.770;9.148;2023-07-31T03:28:26;22.20;59.50
62589;DHT22;58504;48.770;9.148;2023-07-31T03:30:53;22.20;59.50
62589;DHT22;58504;48.770;9.148;2023-07-31T03:33:20;22.20;59.50
62589;DHT22;58504;48.770;9.148;2023-07-31T03:35:46;22.10;59.40
62589;DHT22;58504;48.770;9.148;2023-07-31T03:38:13;22.20;59.50
62589;DHT22;58504;48.770;9.148;2023-07-31T03:40:40;22.10;59.40
62589;DHT22;58504;48.770;9.148;2023-07-31T03:43:07;22.10;59.50
62589;DHT22;58504;48.770;9.148;2023-07-31T03:45:35;22.10;59.50
62589;DHT22;58504;48.770;9.148;2023-07-31T03:48:03;22.10;59.50
62589;DHT22;58504;48.770;9.148;2023-07-31T03:50:29;22.10;59.40
62589;DHT22;58504;48.770;9.148;2023-07-31T03:52:56;22.10;59.50
62589;DHT22;58504;48.770;9.148;2023-07-31T03:55:23;22.20;59.50
62589;DHT22;58504;48.770;9.148;2023-07-31T03:57:52;22.20;59.50
62589;DHT22;58504;48.770;9.148;2023-07-31T04:00:19;22.10;59.40
62589;DHT22;58504;48.770;9.148;2023-07-31T04:02:47;22.20;59.50
62589;DHT22;58504;48.770;9.148;2023-07-31T04:05:14;22.10;59.40
62589;DHT22;58504;48.770;9.148;2023-07-31T04:07:41;22.10;59.40
62589;DHT22;58504;48.770;9.148;2023-07-31T04:10:08;22.20;59.40
62589;DHT22;58504;48.770;9.148;2023-07-31T04:12:35;22.20;59.40
62589;DHT22;58504;48.770;9.148;2023-07-31T04:15:01;22.20;59.30
62589;DHT22;58504;48.770;9.148;2023-07-31T04:17:28;22.20;59.30
62589;DHT22;58504;48.770;9.148;2023-07-31T04:19:56;22.20;59.30
62589;DHT22;58504;48.770;9.148;2023-07-31T04:22:23;22.20;59.20
62589;DHT22;58504;48.770;9.148;2023-07-31T04:24:50;22.20;59.20
62589;DHT22;58504;48.770;9.148;2023-07-31T04:27:16;22.20;59.20
62589;DHT22;58504;48.770;9.148;2023-07-31T04:29:43;22.30;59.30
62589;DHT22;58504;48.770;9.148;2023-07-31T04:32:12;22.20;59.20
62589;DHT22;58504;48.770;9.148;2023-07-31T04:34:41;22.20;59.20
62589;DHT22;58504;48.770;9.148;2023-07-31T04:37:09;22.20;59.20
62589;DHT22;58504;48.770;9.148;2023-07-31T04:39:36;22.20;59.10
62589;DHT22;58504;48.770;9.148;2023-07-31T04:42:03;22.20;59.10
62589;DHT22;58504;48.770;9.148;2023-07-31T04:44:30;22.20;59.10
62589;DHT22;58504;48.770;9.148;2023-07-31T04:46:56;22.30;59.20
62589;DHT22;58504;48.770;9.148;2023-07-31T04:49:23;22.30;59.10
62589;DHT22;58504;48.770;9.148;2023-07-31T04:51:50;22.30;59.20
62589;DHT22;58504;48.770;9.148;2023-07-31T04:54:18;22.30;59.10
62589;DHT22;58504;48.770;9.148;2023-07-31T04:56:45;22.30;59.10
62589;DHT22;58504;48.770;9.148;2023-07-31T04:59:12;22.30;59.10
62589;DHT22;58504;48.770;9.148;2023-07-31T05:01:39;22.30;59.10
62589;DHT22;58504;48.770;9.148;2023-07-31T05:04:06;22.30;59.10
62589;DHT22;58504;48.770;9.148;2023-07-31T05:06:33;22.30;59.20
62589;DHT22;58504;48.770;9.148;2023-07-31T05:08:59;22.30;59.00
62589;DHT22;58504;48.770;9.148;2023-07-31T05:11:27;22.30;59.10
62589;DHT22;58504;48.770;9.148;2023-07-31T05:13:54;22.30;59.00
62589;DHT22;58504;48.770;9.148;2023-07-31T05:16:21;22.30;58.60
62589;DHT22;58504;48.770;9.148;2023-07-31T05:18:48;22.30;59.00
62589;DHT22;58504;48.770;9.148;2023-07-31T05:21:15;22.40;59.00
62589;DHT22;58504;48.770;9.148;2023-07-31T05:23:41;22.40;59.00
62589;DHT22;58504;48.770;9.148;2023-07-31T05:26:08;22.40;59.00
62589;DHT22;58504;48.770;9.148;2023-07-31T05:28:37;22.40;58.90
62589;DHT22;58504;48.770;9.148;2023-07-31T05:31:04;22.40;58.80
62589;DHT22;58504;48.770;9.148;2023-07-31T05:33:32;22.40;58.80
62589;DHT22;58504;48.770;9.148;2023-07-31T05:35:59;22.40;58.70
62589;DHT22;58504;48.770;9.148;2023-07-31T05:38:26;22.50;58.70
62589;DHT22;58504;48.770;9.148;2023-07-31T05:40:52;22.50;58.70
62589;DHT22;58504;48.770;9.148;2023-07-31T05:43:19;22.50;58.50
62589;DHT22;58504;48.770;9.148;2023-07-31T05:45:47;22.50;58.40
62589;DHT22;58504;48.770;9.148;2023-07-31T05:48:14;22.60;58.40
62589;DHT22;58504;48.770;9.148;2023-07-31T05:50:41;22.60;58.20
62589;DHT22;58504;48.770;9.148;2023-07-31T05:53:07;22.70;58.20
62589;DHT22;58504;48.770;9.148;2023-07-31T05:55:35;22.70;58.10
62589;DHT22;58504;48.770;9.148;2023-07-31T05:58:02;22.70;58.10
62589;DHT22;58504;48.770;9.148;2023-07-31T06:00:29;22.80;58.10
62589;DHT22;58504;48.770;9.148;2023-07-31T06:02:57;22.80;58.00
62589;DHT22;58504;48.770;9.148;2023-07-31T06:05:23;22.90;57.90
62589;DHT22;58504;48.770;9.148;2023-07-31T06:07:50;22.90;57.80
62589;DHT22;58504;48.770;9.148;2023-07-31T06:10:16;23.00;57.70
62589;DHT22;58504;48.770;9.148;2023-07-31T06:12:44;23.00;57.50
62589;DHT22;58504;48.770;9.148;2023-07-31T06:15:11;23.10;57.50
62589;DHT22;58504;48.770;9.148;2023-07-31T06:17:37;23.10;57.40
62589;DHT22;58504;48.770;9.148;2023-07-31T06:20:07;23.20;57.30
62589;DHT22;58504;48.770;9.148;2023-07-31T06:22:34;23.20;57.00
62589;DHT22;58504;48.770;9.148;2023-07-31T06:25:01;23.30;57.00
62589;DHT22;58504;48.770;9.148;2023-07-31T06:27:27;23.30;56.90
62589;DHT22;58504;48.770;9.148;2023-07-31T06:29:54;23.30;56.80
62589;DHT22;58504;48.770;9.148;2023-07-31T06:32:21;23.40;56.70
62589;DHT22;58504;48.770;9.148;2023-07-31T06:34:48;23.40;56.40
62589;DHT22;58504;48.770;9.148;2023-07-31T06:37:16;23.40;56.30
62589;DHT22;58504;48.770;9.148;2023-07-31T06:39:44;23.40;56.20
62589;DHT22;58504;48.770;9.148;2023-07-31T06:42:10;23.50;56.30
62589;DHT22;58504;48.770;9.148;2023-07-31T06:44:37;23.40;56.20
62589;DHT22;58504;48.770;9.148;2023-07-31T06:47:04;23.50;56.20
62589;DHT22;58504;48.770;9.148;2023-07-31T06:49:34;23.50;56.10
62589;DHT22;58504;48.770;9.148;2023-07-31T06:52:00;23.60;56.20
62589;DHT22;58504;48.770;9.148;2023-07-31T06:54:28;23.60;56.20
62589;DHT22;58504;48.770;9.148;2023-07-31T06:56:55;23.60;56.10
62589;DHT22;58504;48.770;9.148;2023-07-31T06:59:22;23.70;56.00
62589;DHT22;58504;48.770;9.148;2023-07-31T07:01:49;23.70;55.80
62589;DHT22;58504;48.770;9.148;2023-07-31T07:04:15;23.80;55.80
62589;DHT22;58504;48.770;9.148;2023-07-31T07:06:42;23.90;55.60
62589;DHT22;58504;48.770;9.148;2023-07-31T07:09:09;23.90;55.40
62589;DHT22;58504;48.770;9.148;2023-07-31T07:11:37;24.00;55.50
62589;DHT22;58504;48.770;9.148;2023-07-31T07:14:04;24.10;55.30
62589;DHT22;58504;48.770;9.148;2023-07-31T07:16:30;24.20;55.20
62589;DHT22;58504;48.770;9.148;2023-07-31T07:18:57;24.20;55.10
62589;DHT22;58504;48.770;9.148;2023-07-31T07:21:24;24.30;54.80
62589;DHT22;58504;48.770;9.148;2023-07-31T07:23:51;24.40;54.60
62589;DHT22;58504;48.770;9.148;2023-07-31T07:26:17;24.60;54.20
62589;DHT22;58504;48.770;9.148;2023-07-31T07:28:45;24.90;53.80
62589;DHT22;58504;48.770;9.148;2023-07-31T07:31:12;25.10;53.30
62589;DHT22;58504;48.770;9.148;2023-07-31T07:33:39;25.20;52.70
62589;DHT22;58504;48.770;9.148;2023-07-31T07:36:06;25.10;52.90
62589;DHT22;58504;48.770;9.148;2023-07-31T07:38:35;24.90;53.10
62589;DHT22;58504;48.770;9.148;2023-07-31T07:41:02;24.70;53.40
62589;DHT22;58504;48.770;9.148;2023-07-31T07:43:29;24.80;53.70
62589;DHT22;58504;48.770;9.148;2023-07-31T07:45:57;25.80;52.60
62589;DHT22;58504;48.770;9.148;2023-07-31T07:48:24;26.00;51.10
62589;DHT22;58504;48.770;9.148;2023-07-31T07:50:51;26.30;50.10
62589;DHT22;58504;48.770;9.148;2023-07-31T07:53:18;27.30;49.70
62589;DHT22;58504;48.770;9.148;2023-07-31T07:55:45;28.90;47.00
62589;DHT22;58504;48.770;9.148;2023-07-31T07:58:11;28.60;45.60
62589;DHT22;58504;48.770;9.148;2023-07-31T08:00:38;29.80;44.50
62589;DHT22;58504;48.770;9.148;2023-07-31T08:03:06;30.30;43.70
62589;DHT22;58504;48.770;9.148;2023-07-31T08:05:33;31.10;42.30
62589;DHT22;58504;48.770;9.148;2023-07-31T08:08:00;31.00;41.20
62589;DHT22;58504;48.770;9.148;2023-07-31T08:10:27;30.60;42.20
62589;DHT22;58504;48.770;9.148;2023-07-31T08:12:53;29.70;43.30
62589;DHT22;58504;48.770;9.148;2023-07-31T08:15:20;29.00;44.30
62589;DHT22;58504;48.770;9.148;2023-07-31T08:17:47;28.50;45.20
62589;DHT22;58504;48.770;9.148;2023-07-31T08:20:15;28.10;46.10
62589;DHT22;58504;48.770;9.148;2023-07-31T08:22:42;27.70;46.80
62589;DHT22;58504;48.770;9.148;2023-07-31T08:25:08;27.50;47.40
62589;DHT22;58504;48.770;9.148;2023-07-31T08:27:35;27.30;47.80
62589;DHT22;58504;48.770;9.148;2023-07-31T08:30:02;27.10;48.10
62589;DHT22;58504;48.770;9.148;2023-07-31T08:32:29;26.90;48.50
62589;DHT22;58504;48.770;9.148;2023-07-31T08:34:56;26.70;48.80
62589;DHT22;58504;48.770;9.148;2023-07-31T08:37:24;26.60;49.10
62589;DHT22;58504;48.770;9.148;2023-07-31T08:39:51;26.50;49.30
62589;DHT22;58504;48.770;9.148;2023-07-31T08:42:17;26.40;49.50
62589;DHT22;58504;48.770;9.148;2023-07-31T08:44:44;26.40;49.60
62589;DHT22;58504;48.770;9.148;2023-07-31T08:47:13;26.50;49.50
62589;DHT22;58504;48.770;9.148;2023-07-31T08:49:41;26.70;49.40
62589;DHT22;58504;48.770;9.148;2023-07-31T08:52:09;27.20;48.60
62589;DHT22;58504;48.770;9.148;2023-07-31T08:54:37;27.20;48.40
62589;DHT22;58504;48.770;9.148;2023-07-31T08:57:06;27.30;48.10
62589;DHT22;58504;48.770;9.148;2023-07-31T08:59:34;27.80;47.60
62589;DHT22;58504;48.770;9.148;2023-07-31T09:02:04;27.60;47.20
62589;DHT22;58504;48.770;9.148;2023-07-31T09:04:32;27.30;47.50
62589;DHT22;58504;48.770;9.148;2023-07-31T09:07:01;27.40;47.80
62589;DHT22;58504;48.770;9.148;2023-07-31T09:09:30;27.70;47.60
62589;DHT22;58504;48.770;9.148;2023-07-31T09:11:58;27.40;47.60
62589;DHT22;58504;48.770;9.148;2023-07-31T09:14:26;27.30;47.80
62589;DHT22;58504;48.770;9.148;2023-07-31T09:16:53;27.30;47.90
62589;DHT22;58504;48.770;9.148;2023-07-31T09:19:27;27.30;48.00
62589;DHT22;58504;48.770;9.148;2023-07-31T09:21:54;27.00;48.20
62589;DHT22;58504;48.770;9.148;2023-07-31T09:24:27;26.90;48.60
62589;DHT22;58504;48.770;9.148;2023-07-31T09:26:56;26.60;48.90
62589;DHT22;58504;48.770;9.148;2023-07-31T09:29:26;26.30;49.50
62589;DHT22;58504;48.770;9.148;2023-07-31T09:31:53;26.10;50.00
62589;DHT22;58504;48.770;9.148;2023-07-31T09:34:20;25.90;50.50
62589;DHT22;58504;48.770;9.148;2023-07-31T09:36:54;25.70;51.00
62589;DHT22;58504;48.770;9.148;2023-07-31T09:39:22;25.50;51.40
62589;DHT22;58504;48.770;9.148;2023-07-31T09:41:54;25.30;51.90
62589;DHT22;58504;48.770;9.148;2023-07-31T09:44:21;25.10;52.30
62589;DHT22;58504;48.770;9.148;2023-07-31T09:46:49;25.00;52.60
62589;DHT22;58504;48.770;9.148;2023-07-31T09:49:16;25.00;52.90
62589;DHT22;58504;48.770;9.148;2023-07-31T09:51:42;25.10;52.70
62589;DHT22;58504;48.770;9.148;2023-07-31T09:54:10;25.30;52.40
62589;DHT22;58504;48.770;9.148;2023-07-31T09:56:41;25.60;51.80
62589;DHT22;58504;48.770;9.148;2023-07-31T09:59:11;25.70;51.40
62589;DHT22;58504;48.770;9.148;2023-07-31T10:01:38;25.90;51.10
62589;DHT22;58504;48.770;9.148;2023-07-31T10:04:08;25.80;50.90
62589;DHT22;58504;48.770;9.148;2023-07-31T10:06:35;25.70;51.00
62589;DHT22;58504;48.770;9.148;2023-07-31T10:09:03;25.80;50.90
62589;DHT22;58504;48.770;9.148;2023-07-31T10:11:33;25.90;51.10
62589;DHT22;58504;48.770;9.148;2023-07-31T10:14:01;25.80;50.90
62589;DHT22;58504;48.770;9.148;2023-07-31T10:16:29;25.70;51.10
62589;DHT22;58504;48.770;9.148;2023-07-31T10:18:57;25.60;51.40
62589;DHT22;58504;48.770;9.148;2023-07-31T10:21:26;25.40;51.70
62589;DHT22;58504;48.770;9.148;2023-07-31T10:23:53;25.30;52.00
62589;DHT22;58504;48.770;9.148;2023-07-31T10:26:22;25.10;52.20
62589;DHT22;58504;48.770;9.148;2023-07-31T10:28:51;25.00;52.60
62589;DHT22;58504;48.770;9.148;2023-07-31T10:31:19;25.00;52.80
62589;DHT22;58504;48.770;9.148;2023-07-31T10:33:46;24.90;52.80
62589;DHT22;58504;48.770;9.148;2023-07-31T10:36:13;24.90;53.00
62589;DHT22;58504;48.770;9.148;2023-07-31T10:38:42;24.90;53.10
62589;DHT22;58504;48.770;9.148;2023-07-31T10:41:09;24.80;53.20
62589;DHT22;58504;48.770;9.148;2023-07-31T10:43:36;24.70;53.30
62589;DHT22;58504;48.770;9.148;2023-07-31T10:46:06;24.70;53.40
62589;DHT22;58504;48.770;9.148;2023-07-31T10:48:34;24.70;53.50
62589;DHT22;58504;48.770;9.148;2023-07-31T10:51:07;24.70;53.60
62589;DHT22;58504;48.770;9.148;2023-07-31T10:53:35;24.70;53.70
62589;DHT22;58504;48.770;9.148;2023-07-31T10:56:04;24.60;53.70
62589;DHT22;58504;48.770;9.148;2023-07-31T10:58:32;24.70;53.80
62589;DHT22;58504;48.770;9.148;2023-07-31T11:01:00;24.60;53.80
62589;DHT22;58504;48.770;9.148;2023-07-31T11:03:41;24.60;53.70
62589;DHT22;58504;48.770;9.148;2023-07-31T11:06:08;24.70;53.80
62589;DHT22;58504;48.770;9.148;2023-07-31T11:08:40;24.50;53.70
62589;DHT22;58504;48.770;9.148;2023-07-31T11:11:09;24.50;53.90
62589;DHT22;58504;48.770;9.148;2023-07-31T11:13:42;24.50;54.00
62589;DHT22;58504;48.770;9.148;2023-07-31T11:16:10;24.50;54.00
62589;DHT22;58504;48.770;9.148;2023-07-31T11:18:39;24.40;54.10
62589;DHT22;58504;48.770;9.148;2023-07-31T11:21:06;24.50;54.20
62589;DHT22;58504;48.770;9.148;2023-07-31T11:23:32;24.50;54.10
62589;DHT22;58504;48.770;9.148;2023-07-31T11:25:59;24.50;54.00
62589;DHT22;58504;48.770;9.148;2023-07-31T11:28:32;24.60;53.90
62589;DHT22;58504;48.770;9.148;2023-07-31T11:31:00;24.60;53.70
62589;DHT22;58504;48.770;9.148;2023-07-31T11:33:27;24.70;53.80
62589;DHT22;58504;48.770;9.148;2023-07-31T11:35:54;24.60;53.80
62589;DHT22;58504;48.770;9.148;2023-07-31T11:38:24;24.50;53.90
62589;DHT22;58504;48.770;9.148;2023-07-31T11:40:51;24.50;54.10
62589;DHT22;58504;48.770;9.148;2023-07-31T11:43:19;24.50;54.20
62589;DHT22;58504;48.770;9.148;2023-07-31T11:45:48;24.50;54.10
62589;DHT22;58504;48.770;9.148;2023-07-31T11:48:19;24.50;54.10
62589;DHT22;58504;48.770;9.148;2023-07-31T11:50:48;24.50;54.10
62589;DHT22;58504;48.770;9.148;2023-07-31T11:53:16;24.50;54.00
62589;DHT22;58504;48.770;9.148;2023-07-31T11:55:44;24.50;54.00
62589;DHT22;58504;48.770;9.148;2023-07-31T11:58:12;24.50;54.00
62589;DHT22;58504;48.770;9.148;2023-07-31T12:00:40;24.50;54.10
62589;DHT22;58504;48.770;9.148;2023-07-31T12:03:08;24.40;54.10
62589;DHT22;58504;48.770;9.148;2023-07-31T12:05:37;24.40;54.30
62589;DHT22;58504;48.770;9.148;2023-07-31T12:08:09;24.30;54.30
62589;DHT22;58504;48.770;9.148;2023-07-31T12:10:36;24.40;54.50
62589;DHT22;58504;48.770;9.148;2023-07-31T12:13:05;24.30;54.50
62589;DHT22;58504;48.770;9.148;2023-07-31T12:15:37;24.30;54.50
62589;DHT22;58504;48.770;9.148;2023-07-31T12:18:05;24.30;54.40
62589;DHT22;58504;48.770;9.148;2023-07-31T12:20:33;24.30;54.50
62589;DHT22;58504;48.770;9.148;2023-07-31T12:23:01;24.20;54.60
62589;DHT22;58504;48.770;9.148;2023-07-31T12:25:32;24.20;54.70
62589;DHT22;58504;48.770;9.148;2023-07-31T12:28:04;24.10;54.80
62589;DHT22;58504;48.770;9.148;2023-07-31T12:30:33;24.10;54.90
62589;DHT22;58504;48.770;9.148;2023-07-31T12:33:03;24.10;54.90
62589;DHT22;58504;48.770;9.148;2023-07-31T12:35:36;24.00;54.90
62589;DHT22;58504;48.770;9.148;2023-07-31T12:38:03;24.00;55.10
62589;DHT22;58504;48.770;9.148;2023-07-31T12:40:30;24.00;55.20
62589;DHT22;58504;48.770;9.148;2023-07-31T12:42:57;24.00;55.20
62589;DHT22;58504;48.770;9.148;2023-07-31T12:45:23;23.90;55.20
62589;DHT22;58504;48.770;9.148;2023-07-31T12:47:50;23.90;55.40
62589;DHT22;58504;48.770;9.148;2023-07-31T12:50:17;23.80;55.40
62589;DHT22;58504;48.770;9.148;2023-07-31T12:52:45;23.80;55.40
62589;DHT22;58504;48.770;9.148;2023-07-31T12:55:12;23.80;55.60
62589;DHT22;58504;48.770;9.148;2023-07-31T12:57:40;23.80;55.70
62589;DHT22;58504;48.770;9.148;2023-07-31T13:00:08;23.80;55.70
62589;DHT22;58504;48.770;9.148;2023-07-31T13:02:35;23.70;55.60
62589;DHT22;58504;48.770;9.148;2023-07-31T13:05:02;23.80;55.70
62589;DHT22;58504;48.770;9.148;2023-07-31T13:07:29;23.80;55.70
62589;DHT22;58504;48.770;9.148;2023-07-31T13:09:57;23.80;55.70
62589;DHT22;58504;48.770;9.148;2023-07-31T13:12:23;23.80;55.60
62589;DHT22;58504;48.770;9.148;2023-07-31T13:14:51;23.80;55.60
62589;DHT22;58504;48.770;9.148;2023-07-31T13:17:18;23.80;55.60
62589;DHT22;58504;48.770;9.148;2023-07-31T13:19:45;23.90;55.60
62589;DHT22;58504;48.770;9.148;2023-07-31T13:22:11;23.90;56.10
62589;DHT22;58504;48.770;9.148;2023-07-31T13:24:38;23.90;55.40
62589;DHT22;58504;48.770;9.148;2023-07-31T13:27:06;23.90;55.40
62589;DHT22;58504;48.770;9.148;2023-07-31T13:29:33;24.00;55.40
62589;DHT22;58504;48.770;9.148;2023-07-31T13:32:00;24.00;55.30
62589;DHT22;58504;48.770;9.148;2023-07-31T13:34:26;24.20;55.30
62589;DHT22;58504;48.770;9.148;2023-07-31T13:36:54;24.10;55.10
62589;DHT22;58504;48.770;9.148;2023-07-31T13:39:22;24.20;55.00
62589;DHT22;58504;48.770;9.148;2023-07-31T13:41:48;24.20;54.90
62589;DHT22;58504;48.770;9.148;2023-07-31T13:44:16;24.20;54.90
62589;DHT22;58504;48.770;9.148;2023-07-31T13:46:43;24.20;54.80
62589;DHT22;58504;48.770;9.148;2023-07-31T13:49:10;24.20;54.80
62589;DHT22;58504;48.770;9.148;2023-07-31T13:51:37;24.20;54.80
62589;DHT22;58504;48.770;9.148;2023-07-31T13:54:05;24.20;54.80
62589;DHT22;58504;48.770;9.148;2023-07-31T13:56:33;24.20;54.80
62589;DHT22;58504;48.770;9.148;2023-07-31T13:58:59;24.20;54.90
62589;DHT22;58504;48.770;9.148;2023-07-31T14:01:28;24.10;54.90
62589;DHT22;58504;48.770;9.148;2023-07-31T14:03:55;24.10;55.00
62589;DHT22;58504;48.770;9.148;2023-07-31T14:06:22;24.10;55.00
62589;DHT22;58504;48.770;9.148;2023-07-31T14:08:48;24.00;55.00
62589;DHT22;58504;48.770;9.148;2023-07-31T14:11:15;24.00;55.20
62589;DHT22;58504;48.770;9.148;2023-07-31T14:13:42;24.00;55.20
62589;DHT22;58504;48.770;9.148;2023-07-31T14:16:09;24.00;55.30
62589;DHT22;58504;48.770;9.148;2023-07-31T14:18:37;23.90;55.20
62589;DHT22;58504;48.770;9.148;2023-07-31T14:21:03;23.90;55.20
62589;DHT22;58504;48.770;9.148;2023-07-31T14:23:30;23.90;55.30
62589;DHT22;58504;48.770;9.148;2023-07-31T14:25:57;23.90;55.40
62589;DHT22;58504;48.770;9.148;2023-07-31T14:28:24;23.80;55.30
62589;DHT22;58504;48.770;9.148;2023-07-31T14:30:50;23.80;55.30
62589;DHT22;58504;48.770;9.148;2023-07-31T14:33:17;23.80;55.40
62589;DHT22;58504;48.770;9.148;2023-07-31T14:35:45;23.80;55.40
62589;DHT22;58504;48.770;9.148;2023-07-31T14:38:12;23.80;55.40
62589;DHT22;58504;48.770;9.148;2023-07-31T14:40:39;23.80;55.60
62589;DHT22;58504;48.770;9.148;2023-07-31T14:43:06;23.80;55.60
62589;DHT22;58504;48.770;9.148;2023-07-31T14:45:33;23.80;55.60
62589;DHT22;58504;48.770;9.148;2023-07-31T14:47:59;23.80;55.60
62589;DHT22;58504;48.770;9.148;2023-07-31T14:50:26;23.90;55.70
62589;DHT22;58504;48.770;9.148;2023-07-31T14:52:54;23.80;55.60
62589;DHT22;58504;48.770;9.148;2023-07-31T14:55:21;23.80;55.50
62589;DHT22;58504;48.770;9.148;2023-07-31T14:57:48;23.90;55.60
62589;DHT22;58504;48.770;9.148;2023-07-31T15:00:15;23.80;55.40
62589;DHT22;58504;48.770;9.148;2023-07-31T15:02:42;23.90;55.40
62589;DHT22;58504;48.770;9.148;2023-07-31T15:05:09;23.90;55.40
62589;DHT22;58504;48.770;9.148;2023-07-31T15:07:35;23.90;55.40
62589;DHT22;58504;48.770;9.148;2023-07-31T15:10:05;24.00;55.70
62589;DHT22;58504;48.770;9.148;2023-07-31T15:12:32;24.00;55.30
62589;DHT22;58504;48.770;9.148;2023-07-31T15:14:58;24.00;55.30
62589;DHT22;58504;48.770;9.148;2023-07-31T15:17:25;23.90;55.30
62589;DHT22;58504;48.770;9.148;2023-07-31T15:19:52;23.90;55.10
62589;DHT22;58504;48.770;9.148;2023-07-31T15:22:19;23.90;55.20
62589;DHT22;58504;48.770;9.148;2023-07-31T15:24:45;23.90;55.30
62589;DHT22;58504;48.770;9.148;2023-07-31T15:27:15;23.90;55.20
62589;DHT22;58504;48.770;9.148;2023-07-31T15:29:42;23.90;55.30
62589;DHT22;58504;48.770;9.148;2023-07-31T15:32:09;23.90;55.30